createdAt,value
2023-02-15T00:01:37.155Z,49.95
2023-02-15T00:04:05.564Z,49.58
2023-02-15T00:06:33.316Z,49.28
2023-02-15T00:09:01.223Z,47.72
2023-02-15T00:11:40.632Z,49.13
2023-02-15T00:14:12.741Z,47.65
2023-02-15T00:16:41.751Z,48.03
2023-02-15T00:19:10.193Z,47.88
2023-02-15T00:21:38.992Z,49.15
2023-02-15T00:24:09.330Z,48.30
2023-02-15T00:26:37.152Z,48.67
2023-02-15T00:29:04.596Z,48.83
2023-02-15T00:31:33.470Z,48.33
2023-02-15T00:34:04.768Z,47.38
2023-02-15T00:36:32.617Z,48.42
2023-02-15T00:39:00.107Z,48.75
2023-02-15T00:41:27.513Z,48.83
2023-02-15T00:43:54.869Z,48.53
2023-02-15T00:46:22.216Z,49.05
2023-02-15T00:48:49.514Z,47.90
2023-02-15T00:51:18.178Z,48.20
2023-02-15T00:53:45.665Z,48.25
2023-02-15T00:56:14.169Z,49.35
2023-02-15T00:58:41.453Z,48.70
2023-02-15T01:01:15.773Z,46.80
2023-02-15T01:03:43.661Z,46.88
2023-02-15T01:06:11.993Z,48.53
2023-02-15T01:08:39.740Z,45.97
2023-02-15T01:11:11.855Z,47.58
2023-02-15T01:13:40.188Z,48.58
2023-02-15T01:16:07.870Z,48.97
2023-02-15T01:18:35.960Z,47.40
2023-02-15T01:21:14.840Z,47.47
2023-02-15T01:23:44.776Z,47.53
2023-02-15T01:26:14.236Z,48.05
2023-02-15T01:28:44.212Z,48.38
2023-02-15T01:31:14.702Z,48.42
2023-02-15T01:33:42.778Z,47.85
2023-02-15T01:36:10.928Z,47.25
2023-02-15T01:38:40.938Z,47.35
2023-02-15T01:41:27.331Z,48.50
2023-02-15T01:43:57.889Z,49.67
2023-02-15T01:46:33.772Z,48.50
2023-02-15T01:49:04.951Z,51.22
2023-02-15T01:51:34.687Z,49.67
2023-02-15T01:54:08.761Z,48.50
2023-02-15T01:56:38.446Z,47.60
2023-02-15T01:59:10.317Z,48.63
2023-02-15T02:01:38.670Z,47.90
2023-02-15T02:04:13.124Z,50.25
2023-02-15T02:06:40.480Z,49.13
2023-02-15T02:09:08.548Z,48.83
2023-02-15T02:11:36.108Z,48.63
2023-02-15T02:14:04.772Z,48.67
2023-02-15T02:16:50.752Z,49.38
2023-02-15T02:19:20.973Z,48.97
2023-02-15T02:22:00.614Z,47.97
2023-02-15T02:25:10.083Z,48.15
2023-02-15T02:28:08.012Z,49.38
2023-02-15T02:31:09.361Z,49.50
2023-02-15T02:33:44.909Z,48.83
2023-02-15T02:36:43.232Z,49.22
2023-02-15T02:39:42.140Z,49.85
2023-02-15T02:42:30.577Z,48.33
2023-02-15T02:45:09.816Z,47.13
2023-02-15T02:47:58.737Z,48.53
2023-02-15T02:50:30.508Z,48.53
2023-02-15T02:52:59.439Z,48.40
2023-02-15T02:55:33.388Z,49.80
2023-02-15T02:58:09.388Z,49.35
2023-02-15T03:00:40.681Z,49.45
2023-02-15T03:03:12.818Z,49.88
2023-02-15T03:05:43.041Z,48.45
2023-02-15T03:08:11.099Z,48.03
2023-02-15T03:10:41.028Z,48.15
2023-02-15T03:13:08.876Z,47.28
2023-02-15T03:15:57.954Z,47.47
2023-02-15T03:18:29.850Z,47.05
2023-02-15T03:20:58.815Z,46.75
2023-02-15T03:23:27.633Z,48.72
2023-02-15T03:26:02.013Z,48.38
2023-02-15T03:28:41.495Z,47.13
2023-02-15T03:31:10.050Z,48.65
2023-02-15T03:33:40.181Z,47.63
2023-02-15T03:38:44.575Z,46.65
2023-02-15T03:41:12.787Z,47.40
2023-02-15T03:43:53.278Z,49.05
2023-02-15T03:47:10.130Z,47.75
2023-02-15T03:49:46.638Z,47.20
2023-02-15T03:52:15.899Z,48.25
2023-02-15T03:54:44.468Z,48.13
2023-02-15T03:57:38.303Z,48.90
2023-02-15T04:00:32.406Z,48.75
2023-02-15T04:03:23.988Z,50.03
2023-02-15T04:05:51.629Z,47.45
2023-02-15T04:08:19.076Z,48.70
2023-02-15T04:10:57.160Z,48.95
2023-02-15T04:13:32.737Z,47.42
2023-02-15T04:16:07.634Z,48.80
2023-02-15T04:19:00.893Z,49.20
2023-02-15T04:21:49.528Z,48.60
2023-02-15T04:24:35.577Z,48.40
2023-02-15T04:27:03.419Z,48.55
2023-02-15T04:29:31.227Z,49.00
2023-02-15T04:32:00.581Z,50.50
2023-02-15T04:34:27.968Z,50.05
2023-02-15T04:36:55.482Z,49.63
2023-02-15T04:39:22.817Z,49.95
2023-02-15T04:41:50.121Z,49.78
2023-02-15T04:44:17.372Z,50.25
2023-02-15T04:46:44.691Z,52.13
2023-02-15T04:49:12.021Z,49.15
2023-02-15T04:51:39.317Z,50.92
2023-02-15T04:54:06.717Z,51.08
2023-02-15T04:56:35.829Z,51.42
2023-02-15T04:59:03.177Z,52.60
2023-02-15T05:01:30.615Z,52.42
2023-02-15T05:03:58.079Z,51.50
2023-02-15T05:06:25.536Z,51.10
2023-02-15T05:08:52.868Z,53.78
2023-02-15T05:11:20.388Z,54.70
2023-02-15T05:13:47.682Z,54.08
2023-02-15T05:16:15.264Z,54.65
2023-02-15T05:18:42.595Z,56.22
2023-02-15T05:21:09.912Z,54.85
2023-02-15T05:23:37.385Z,55.22
2023-02-15T05:26:26.881Z,55.28
2023-02-15T05:28:54.204Z,56.05
2023-02-15T05:31:23.366Z,57.13
2023-02-15T05:33:50.917Z,55.00
2023-02-15T05:36:18.260Z,57.72
2023-02-15T05:38:45.622Z,57.38
2023-02-15T05:41:12.918Z,57.92
2023-02-15T05:43:40.498Z,59.97
2023-02-15T05:46:08.275Z,57.50
2023-02-15T05:48:35.836Z,58.58
2023-02-15T05:51:12.383Z,55.55
2023-02-15T05:53:40.476Z,57.55
2023-02-15T05:56:10.186Z,57.25
2023-02-15T05:58:40.011Z,57.42
2023-02-15T06:01:18.146Z,59.10
2023-02-15T06:03:47.495Z,58.47
2023-02-15T06:06:14.839Z,58.60
2023-02-15T06:08:42.633Z,58.50
2023-02-15T06:11:10.377Z,57.17
2023-02-15T06:13:38.937Z,58.08
2023-02-15T06:16:07.717Z,58.47
2023-02-15T06:18:35.222Z,60.25
2023-02-15T06:21:02.562Z,60.90
2023-02-15T06:23:29.857Z,58.70
2023-02-15T06:25:57.096Z,58.50
2023-02-15T06:28:26.329Z,60.70
2023-02-15T06:30:53.844Z,59.75
2023-02-15T06:33:21.301Z,59.55
2023-02-15T06:35:48.826Z,59.63
2023-02-15T06:38:16.050Z,57.78
2023-02-15T06:40:43.307Z,59.25
2023-02-15T06:43:10.616Z,58.33
2023-02-15T06:45:38.008Z,59.40
2023-02-15T06:48:07.943Z,60.20
2023-02-15T06:53:02.770Z,57.65
2023-02-15T06:55:30.508Z,58.50
2023-02-15T06:57:58.253Z,60.08
2023-02-15T07:00:25.691Z,59.92
2023-02-15T07:02:57.010Z,61.05
2023-02-15T07:05:25.527Z,62.80
2023-02-15T07:07:52.781Z,61.78
2023-02-15T07:10:20.060Z,59.35
2023-02-15T07:12:47.458Z,61.50
2023-02-15T07:15:17.421Z,61.55
2023-02-15T07:20:17.463Z,58.53
2023-02-15T07:22:44.904Z,59.20
2023-02-15T07:25:13.165Z,58.53
2023-02-15T07:27:41.389Z,59.10
2023-02-15T07:30:12.325Z,59.05
2023-02-15T07:32:59.675Z,58.60
2023-02-15T07:35:26.904Z,59.10
2023-02-15T07:37:55.037Z,59.53
2023-02-15T07:40:24.331Z,58.65
2023-02-15T07:42:55.965Z,59.30
2023-02-15T07:45:23.672Z,59.80
2023-02-15T07:47:50.997Z,61.47
2023-02-15T07:50:18.468Z,60.70
2023-02-15T07:52:45.827Z,60.45
2023-02-15T07:55:13.920Z,61.33
2023-02-15T07:57:48.318Z,64.05
2023-02-15T08:00:26.001Z,61.63
2023-02-15T08:03:15.245Z,61.13
2023-02-15T08:05:44.421Z,60.60
2023-02-15T08:08:30.914Z,62.27
2023-02-15T08:11:26.861Z,62.05
2023-02-15T08:14:08.690Z,62.45
2023-02-15T08:16:49.925Z,62.28
2023-02-15T08:19:22.779Z,60.97
2023-02-15T08:21:54.510Z,61.13
2023-02-15T08:24:23.551Z,60.10
2023-02-15T08:26:52.208Z,61.42
2023-02-15T08:29:22.333Z,60.03
2023-02-15T08:31:50.593Z,60.90
2023-02-15T08:34:19.936Z,60.00
2023-02-15T08:36:47.420Z,54.30
2023-02-15T08:39:15.641Z,56.75
2023-02-15T08:41:45.160Z,56.90
2023-02-15T08:44:12.574Z,58.47
2023-02-15T08:46:42.595Z,58.78
2023-02-15T08:51:39.597Z,57.38
2023-02-15T08:54:09.968Z,59.58
2023-02-15T08:56:39.660Z,59.40
2023-02-15T08:59:08.929Z,58.67
2023-02-15T09:01:36.718Z,66.65
2023-02-15T09:04:06.431Z,66.82
2023-02-15T09:06:34.251Z,62.80
2023-02-15T09:09:02.011Z,59.22
2023-02-15T09:11:31.109Z,59.90
2023-02-15T09:14:01.195Z,61.25
2023-02-15T09:16:31.672Z,61.35
2023-02-15T09:18:59.596Z,59.25
2023-02-15T09:21:27.570Z,60.45
2023-02-15T09:24:00.851Z,60.50
2023-02-15T09:26:30.662Z,60.53
2023-02-15T09:29:00.987Z,64.70
2023-02-15T09:31:31.022Z,59.63
2023-02-15T09:36:29.183Z,61.90
2023-02-15T09:39:11.914Z,62.38
2023-02-15T09:42:16.671Z,61.95
2023-02-15T09:44:59.268Z,61.88
2023-02-15T09:47:26.518Z,64.22
2023-02-15T09:50:14.456Z,63.67
2023-02-15T09:52:41.811Z,61.67
2023-02-15T09:55:23.445Z,64.40
2023-02-15T09:58:13.797Z,64.43
2023-02-15T10:01:06.093Z,62.97
2023-02-15T10:03:51.900Z,62.90
2023-02-15T10:06:43.299Z,62.67
2023-02-15T10:09:26.107Z,61.95
2023-02-15T10:12:09.677Z,60.58
2023-02-15T10:14:51.661Z,59.13
2023-02-15T10:17:21.667Z,62.33
2023-02-15T10:20:01.275Z,65.32
2023-02-15T10:22:57.698Z,61.78
2023-02-15T10:25:24.865Z,61.70
2023-02-15T10:27:52.413Z,60.92
2023-02-15T10:30:25.211Z,61.30
2023-02-15T10:32:58.622Z,62.20
2023-02-15T10:35:41.223Z,61.58
2023-02-15T10:38:23.786Z,61.40
2023-02-15T10:41:07.244Z,61.17
2023-02-15T10:43:51.806Z,59.35
2023-02-15T10:46:34.621Z,59.78
2023-02-15T10:49:04.982Z,60.53
2023-02-15T10:52:08.835Z,61.70
2023-02-15T10:54:57.962Z,61.50
2023-02-15T10:57:40.190Z,60.50
2023-02-15T11:00:15.798Z,60.90
2023-02-15T11:02:53.200Z,60.95
2023-02-15T11:05:51.246Z,61.65
2023-02-15T11:08:19.001Z,61.42
2023-02-15T11:10:52.564Z,62.60
2023-02-15T11:13:21.902Z,63.60
2023-02-15T11:15:59.153Z,63.10
2023-02-15T11:18:33.409Z,63.70
2023-02-15T11:21:40.134Z,61.83
2023-02-15T11:24:19.255Z,62.50
2023-02-15T11:27:03.623Z,63.97
2023-02-15T11:29:46.314Z,64.72
2023-02-15T11:32:25.383Z,64.78
2023-02-15T11:34:56.034Z,63.53
2023-02-15T11:38:12.277Z,64.47
2023-02-15T11:41:05.443Z,63.58
2023-02-15T11:43:41.244Z,63.55
2023-02-15T11:46:12.425Z,63.50
2023-02-15T11:48:40.608Z,64.25
2023-02-15T11:51:13.869Z,64.60
2023-02-15T11:53:41.445Z,64.00
2023-02-15T11:56:15.517Z,64.53
2023-02-15T11:58:46.878Z,64.95
2023-02-15T12:01:45.236Z,63.08
2023-02-15T12:04:47.460Z,63.55
2023-02-15T12:07:20.049Z,63.50
2023-02-15T12:10:17.508Z,60.17
2023-02-15T12:12:45.111Z,61.85
2023-02-15T12:15:13.785Z,61.42
2023-02-15T12:17:53.105Z,62.97
2023-02-15T12:20:20.556Z,60.97
2023-02-15T12:22:51.905Z,59.90
2023-02-15T12:25:43.121Z,61.67
2023-02-15T12:28:32.011Z,61.47
2023-02-15T12:31:00.230Z,59.75
2023-02-15T12:33:31.488Z,59.10
2023-02-15T12:36:02.386Z,59.40
2023-02-15T12:38:30.545Z,60.00
2023-02-15T12:41:19.099Z,57.85
2023-02-15T12:43:46.552Z,59.17
2023-02-15T12:46:22.092Z,58.00
2023-02-15T12:49:07.612Z,58.47
2023-02-15T12:51:59.501Z,58.03
2023-02-15T12:54:35.526Z,58.38
2023-02-15T12:57:22.154Z,58.28
2023-02-15T13:00:04.264Z,56.00
2023-02-15T13:02:43.824Z,55.30
2023-02-15T13:05:14.644Z,57.05
2023-02-15T13:07:53.079Z,56.38
2023-02-15T13:10:42.185Z,55.58
2023-02-15T13:13:21.791Z,56.42
2023-02-15T13:15:51.980Z,55.80
2023-02-15T13:18:41.174Z,56.17
2023-02-15T13:21:19.499Z,56.50
2023-02-15T13:23:54.885Z,56.83
2023-02-15T13:26:23.888Z,55.22
2023-02-15T13:28:55.463Z,55.92
2023-02-15T13:31:26.490Z,55.70
2023-02-15T13:34:14.251Z,56.70
2023-02-15T13:37:29.433Z,54.13
2023-02-15T13:40:08.835Z,54.95
2023-02-15T13:42:42.071Z,56.35
2023-02-15T13:45:14.313Z,54.88
2023-02-15T13:48:09.882Z,55.13
2023-02-15T13:50:58.333Z,54.20
2023-02-15T13:53:43.915Z,51.47
2023-02-15T13:56:33.526Z,51.92
2023-02-15T13:59:14.577Z,54.00
2023-02-15T14:01:47.684Z,51.33
2023-02-15T14:04:31.480Z,51.42
2023-02-15T14:07:17.462Z,52.05
2023-02-15T14:09:48.664Z,51.95
2023-02-15T14:12:34.662Z,50.47
2023-02-15T14:15:14.438Z,49.55
2023-02-15T14:17:54.668Z,50.47
2023-02-15T14:20:40.538Z,48.40
2023-02-15T14:23:31.149Z,48.65
2023-02-15T14:26:22.320Z,46.50
2023-02-15T14:29:17.421Z,47.85
2023-02-15T14:31:49.342Z,47.13
2023-02-15T14:34:43.484Z,48.65
2023-02-15T14:37:12.568Z,48.20
2023-02-15T14:40:08.066Z,46.22
2023-02-15T14:42:46.950Z,47.63
2023-02-15T14:45:27.469Z,46.95
2023-02-15T14:48:34.780Z,47.72
2023-02-15T14:51:02.548Z,46.47
2023-02-15T14:53:33.190Z,45.63
2023-02-15T14:56:21.836Z,45.78
2023-02-15T14:58:55.326Z,45.40
2023-02-15T15:01:30.571Z,44.75
2023-02-15T15:04:09.371Z,45.15
2023-02-15T15:06:38.790Z,45.72
2023-02-15T15:09:14.049Z,42.50
2023-02-15T15:11:52.134Z,42.28
2023-02-15T15:14:34.735Z,43.08
2023-02-15T15:17:04.748Z,43.40
2023-02-15T15:19:52.027Z,43.38
2023-02-15T15:22:21.342Z,43.08
2023-02-15T15:24:50.463Z,42.95
2023-02-15T15:27:44.097Z,41.42
2023-02-15T15:30:14.633Z,41.45
2023-02-15T15:32:57.760Z,41.33
2023-02-15T15:36:02.876Z,41.58
2023-02-15T15:38:54.676Z,41.65
2023-02-15T15:41:44.738Z,41.35
2023-02-15T15:44:51.012Z,41.72
2023-02-15T15:47:41.316Z,41.00
2023-02-15T15:52:43.697Z,40.08
2023-02-15T15:55:23.273Z,40.80
2023-02-15T15:57:53.901Z,40.42
2023-02-15T16:00:36.586Z,39.83
2023-02-15T16:03:04.122Z,39.97
2023-02-15T16:05:39.709Z,38.78
2023-02-15T16:08:07.241Z,39.53
2023-02-15T16:10:37.021Z,38.65
2023-02-15T16:13:06.326Z,37.85
2023-02-15T16:15:45.621Z,37.30
2023-02-15T16:18:17.293Z,34.73
2023-02-15T16:21:03.127Z,38.13
2023-02-15T16:23:46.293Z,36.78
2023-02-15T16:26:32.369Z,38.28
2023-02-15T16:28:59.686Z,38.05
2023-02-15T16:31:27.148Z,38.92
2023-02-15T16:33:55.959Z,39.88
2023-02-15T16:36:30.261Z,39.28
2023-02-15T16:38:57.564Z,39.08
2023-02-15T16:41:28.198Z,37.67
2023-02-15T16:43:58.731Z,38.53
2023-02-15T16:46:32.172Z,38.20
2023-02-15T16:49:03.233Z,37.78
2023-02-15T16:51:32.598Z,38.05
2023-02-15T16:54:07.182Z,37.70
2023-02-15T16:56:35.183Z,37.22
2023-02-15T16:59:03.333Z,37.10
2023-02-15T17:01:32.718Z,36.63
2023-02-15T17:04:22.969Z,36.37
2023-02-15T17:07:20.039Z,36.72
2023-02-15T17:09:57.416Z,36.63
2023-02-15T17:12:56.389Z,35.92
2023-02-15T17:15:37.712Z,37.17
2023-02-15T17:18:22.610Z,36.90
2023-02-15T17:20:52.544Z,37.13
2023-02-15T17:23:29.341Z,36.28
2023-02-15T17:25:57.283Z,35.63
2023-02-15T17:28:30.525Z,36.25
2023-02-15T17:30:59.212Z,34.67
2023-02-15T17:33:37.707Z,33.60
2023-02-15T17:36:25.898Z,33.72
2023-02-15T17:38:58.885Z,32.50
2023-02-15T17:41:27.452Z,32.17
2023-02-15T17:43:54.926Z,32.20
2023-02-15T17:46:22.938Z,31.77
2023-02-15T17:48:57.234Z,33.85
2023-02-15T17:51:24.595Z,32.85
2023-02-15T17:54:10.637Z,33.38
2023-02-15T17:56:38.884Z,32.95
2023-02-15T17:59:07.701Z,33.60
2023-02-15T18:01:54.743Z,34.72
2023-02-15T18:04:40.674Z,34.60
2023-02-15T18:07:28.641Z,33.28
2023-02-15T18:10:14.509Z,34.13
2023-02-15T18:12:42.638Z,33.15
2023-02-15T18:15:12.706Z,30.48
2023-02-15T18:17:43.444Z,29.98
2023-02-15T18:20:24.337Z,31.05
2023-02-15T18:22:52.092Z,30.05
2023-02-15T18:25:21.365Z,30.95
2023-02-15T18:27:48.786Z,28.98
2023-02-15T18:30:19.705Z,32.75
2023-02-15T18:32:48.757Z,30.90
2023-02-15T18:35:17.651Z,30.50
2023-02-15T18:37:46.367Z,29.02
2023-02-15T18:40:18.284Z,27.00
2023-02-15T18:42:47.977Z,27.70
2023-02-15T18:45:25.159Z,27.90
2023-02-15T18:47:52.560Z,25.85
2023-02-15T18:50:21.148Z,25.70
2023-02-15T18:52:51.526Z,24.27
2023-02-15T18:55:21.731Z,23.15
2023-02-15T19:00:21.543Z,95.65
2023-02-15T19:02:48.997Z,46.28
2023-02-15T19:05:18.039Z,26.23
2023-02-15T19:07:48.463Z,21.17
2023-02-15T19:10:18.849Z,20.92
2023-02-15T19:12:46.702Z,20.70
2023-02-15T19:15:18.186Z,20.38
2023-02-15T19:17:46.768Z,19.75
2023-02-15T19:20:22.815Z,19.98
2023-02-15T19:22:51.621Z,19.92
2023-02-15T19:25:26.812Z,20.35
2023-02-15T19:27:54.977Z,19.45
2023-02-15T19:30:30.719Z,19.58
2023-02-15T19:32:59.552Z,19.63
2023-02-15T19:35:30.344Z,18.40
2023-02-15T19:37:59.763Z,20.00
2023-02-15T19:40:30.440Z,19.63
2023-02-15T19:42:58.226Z,19.70
2023-02-15T19:45:28.068Z,19.08
2023-02-15T19:47:55.793Z,19.30
2023-02-15T19:50:25.640Z,18.65
2023-02-15T19:52:53.506Z,18.08
2023-02-15T19:55:29.581Z,18.35
2023-02-15T19:57:58.232Z,18.63
2023-02-15T20:00:33.371Z,18.77
2023-02-15T20:03:06.290Z,17.83
2023-02-15T20:05:38.291Z,18.95
2023-02-15T20:08:15.611Z,17.48
2023-02-15T20:10:44.184Z,21.85
2023-02-15T20:13:16.102Z,20.50
2023-02-15T20:15:44.629Z,18.92
2023-02-15T20:18:12.579Z,19.17
2023-02-15T20:20:57.958Z,18.77
2023-02-15T20:23:31.566Z,18.85
2023-02-15T20:26:00.838Z,19.65
2023-02-15T20:28:31.543Z,18.58
2023-02-15T20:30:59.395Z,18.73
2023-02-15T20:33:26.730Z,18.40
2023-02-15T20:35:54.202Z,18.60
2023-02-15T20:38:29.926Z,18.10
2023-02-15T20:41:20.037Z,18.15
2023-02-15T20:43:51.619Z,17.65
2023-02-15T20:46:19.177Z,17.60
2023-02-15T20:48:46.431Z,18.73
2023-02-15T20:51:21.873Z,18.13
2023-02-15T20:53:50.277Z,18.13
2023-02-15T20:56:23.546Z,18.17
2023-02-15T20:58:52.141Z,18.88
2023-02-15T21:01:22.901Z,19.08
2023-02-15T21:03:50.871Z,19.15
2023-02-15T21:06:18.382Z,17.90
2023-02-15T21:08:46.752Z,17.10
2023-02-15T21:11:23.303Z,17.55
2023-02-15T21:16:21.379Z,18.00
2023-02-15T21:18:53.278Z,17.60
2023-02-15T21:21:26.592Z,17.55
2023-02-15T21:23:55.448Z,16.35
2023-02-15T21:26:23.411Z,16.98
2023-02-15T21:28:51.562Z,16.27
2023-02-15T21:31:21.853Z,16.00
2023-02-15T21:33:49.442Z,16.75
2023-02-15T21:36:19.991Z,16.30
2023-02-15T21:38:48.645Z,17.25
2023-02-15T21:41:36.510Z,16.65
2023-02-15T21:44:38.126Z,17.23
2023-02-15T21:47:24.822Z,17.73
2023-02-15T21:49:53.195Z,17.30
2023-02-15T21:52:24.246Z,18.23
2023-02-15T21:54:52.069Z,17.85
2023-02-15T21:57:22.582Z,18.45
2023-02-15T21:59:50.280Z,17.60
2023-02-15T22:02:36.043Z,17.67
2023-02-15T22:05:28.469Z,17.83
2023-02-15T22:07:57.543Z,17.20
2023-02-15T22:10:30.555Z,17.38
2023-02-15T22:13:02.717Z,19.00
2023-02-15T22:15:39.260Z,18.02
2023-02-15T22:18:07.674Z,18.40
2023-02-15T22:20:42.256Z,17.73
2023-02-15T22:23:13.201Z,17.98
2023-02-15T22:25:41.411Z,18.35
2023-02-15T22:28:19.135Z,18.92
2023-02-15T22:30:46.641Z,18.75
2023-02-15T22:33:33.723Z,19.05
2023-02-15T22:36:01.305Z,20.15
2023-02-15T22:38:28.750Z,19.92
2023-02-15T22:40:58.212Z,20.80
2023-02-15T22:43:40.057Z,21.33
2023-02-15T22:46:15.406Z,21.23
2023-02-15T22:48:44.256Z,22.85
2023-02-15T22:51:16.058Z,22.17
2023-02-15T22:53:43.443Z,22.80
2023-02-15T22:56:18.299Z,24.15
2023-02-15T22:58:48.403Z,22.85
2023-02-15T23:01:30.635Z,23.77
2023-02-15T23:03:58.094Z,28.25
2023-02-15T23:06:25.383Z,25.40
2023-02-15T23:08:52.670Z,24.88
2023-02-15T23:11:20.229Z,25.75
2023-02-15T23:13:48.978Z,27.88
2023-02-15T23:16:17.613Z,27.20
2023-02-15T23:18:46.292Z,27.95
2023-02-15T23:21:26.320Z,27.25
2023-02-15T23:23:56.410Z,27.67
2023-02-15T23:28:56.037Z,26.75
2023-02-15T23:31:33.816Z,28.90
2023-02-15T23:34:02.993Z,27.98
2023-02-15T23:36:33.540Z,26.88
2023-02-15T23:39:39.742Z,27.38
2023-02-15T23:42:16.303Z,26.63
2023-02-15T23:44:44.754Z,26.92
2023-02-15T23:47:20.309Z,28.27
2023-02-15T23:49:47.797Z,26.98
2023-02-15T23:52:15.297Z,26.75
2023-02-15T23:54:42.622Z,26.58
2023-02-15T23:57:10.566Z,25.83
2023-02-15T23:59:40.959Z,26.45
